sensor_id;sensor_type;location;lat;lon;timestamp;pressure;altitude;pressure_sealevel;temperature;humidity
41202;BME280;26936;50.524;8.684;2023-04-28T00:01:41;99228.59;;;9.98;88.50
41202;BME280;26936;50.524;8.684;2023-04-28T00:04:06;99234.97;;;9.99;89.39
41202;BME280;26936;50.524;8.684;2023-04-28T00:06:32;99228.59;;;9.98;90.57
41202;BME280;26936;50.524;8.684;2023-04-28T00:08:57;99222.16;;;9.98;89.57
41202;BME280;26936;50.524;8.684;2023-04-28T00:11:22;99221.81;;;9.96;89.36
41202;BME280;26936;50.524;8.684;2023-04-28T00:13:47;99210.56;;;9.96;89.22
41202;BME280;26936;50.524;8.684;2023-04-28T00:16:13;99206.53;;;9.97;89.97
41202;BME280;26936;50.524;8.684;2023-04-28T00:18:38;99209.78;;;9.95;91.64
41202;BME280;26936;50.524;8.684;2023-04-28T00:21:03;99196.63;;;9.92;92.47
41202;BME280;26936;50.524;8.684;2023-04-28T00:23:29;99193.16;;;9.88;92.88
41202;BME280;26936;50.524;8.684;2023-04-28T00:25:55;99187.88;;;9.90;93.09
41202;BME280;26936;50.524;8.684;2023-04-28T00:28:21;99185.47;;;9.89;93.99
41202;BME280;26936;50.524;8.684;2023-04-28T00:30:47;99181.56;;;9.86;91.45
41202;BME280;26936;50.524;8.684;2023-04-28T00:33:12;99175.59;;;9.84;87.93
41202;BME280;26936;50.524;8.684;2023-04-28T00:35:39;99177.94;;;9.86;85.90
41202;BME280;26936;50.524;8.684;2023-04-28T00:38:04;99181.44;;;9.90;86.65
41202;BME280;26936;50.524;8.684;2023-04-28T00:40:36;99173.34;;;9.92;86.26
41202;BME280;26936;50.524;8.684;2023-04-28T00:43:02;99176.91;;;9.92;87.00
41202;BME280;26936;50.524;8.684;2023-04-28T00:45:28;99172.78;;;9.97;86.61
41202;BME280;26936;50.524;8.684;2023-04-28T00:47:54;99172.44;;;9.95;85.69
41202;BME280;26936;50.524;8.684;2023-04-28T00:50:20;99168.81;;;9.94;85.56
41202;BME280;26936;50.524;8.684;2023-04-28T00:52:46;99168.81;;;9.94;86.96
41202;BME280;26936;50.524;8.684;2023-04-28T00:55:14;99158.38;;;9.95;87.38
41202;BME280;26936;50.524;8.684;2023-04-28T00:57:39;99148.78;;;9.92;89.11
41202;BME280;26936;50.524;8.684;2023-04-28T01:00:06;99150.84;;;9.92;88.37
41202;BME280;26936;50.524;8.684;2023-04-28T01:02:32;99153.66;;;9.92;88.78
41202;BME280;26936;50.524;8.684;2023-04-28T01:04:58;99155.78;;;9.88;89.63
41202;BME280;26936;50.524;8.684;2023-04-28T01:07:23;99152.53;;;9.89;90.43
41202;BME280;26936;50.524;8.684;2023-04-28T01:09:49;99142.19;;;9.86;90.82
41202;BME280;26936;50.524;8.684;2023-04-28T01:12:15;99149.63;;;9.80;91.06
41202;BME280;26936;50.524;8.684;2023-04-28T01:14:40;99140.72;;;9.82;89.95
41202;BME280;26936;50.524;8.684;2023-04-28T01:17:07;99142.09;;;9.77;89.97
41202;BME280;26936;50.524;8.684;2023-04-28T01:19:32;99125.66;;;9.76;87.92
41202;BME280;26936;50.524;8.684;2023-04-28T01:21:57;99122.41;;;9.77;86.05
41202;BME280;26936;50.524;8.684;2023-04-28T01:24:23;99128.81;;;9.78;86.78
41202;BME280;26936;50.524;8.684;2023-04-28T01:26:48;99125.22;;;9.77;86.88
41202;BME280;26936;50.524;8.684;2023-04-28T01:29:13;99131.50;;;9.81;87.64
41202;BME280;26936;50.524;8.684;2023-04-28T01:31:38;99127.91;;;9.81;89.32
41202;BME280;26936;50.524;8.684;2023-04-28T01:34:04;99114.41;;;9.76;88.18
41202;BME280;26936;50.524;8.684;2023-04-28T01:36:29;99118.47;;;9.75;87.46
41202;BME280;26936;50.524;8.684;2023-04-28T01:38:55;99114.41;;;9.76;86.58
41202;BME280;26936;50.524;8.684;2023-04-28T01:41:20;99111.59;;;9.76;86.45
41202;BME280;26936;50.524;8.684;2023-04-28T01:43:46;99122.41;;;9.77;87.31
41202;BME280;26936;50.524;8.684;2023-04-28T01:46:11;99109.91;;;9.78;84.69
41202;BME280;26936;50.524;8.684;2023-04-28T01:48:37;99115.66;;;9.75;85.04
41202;BME280;26936;50.524;8.684;2023-04-28T01:51:02;99107.34;;;9.71;84.41
41202;BME280;26936;50.524;8.684;2023-04-28T01:53:27;99104.97;;;9.70;84.37
41202;BME280;26936;50.524;8.684;2023-04-28T01:55:53;99102.75;;;9.64;84.89
41202;BME280;26936;50.524;8.684;2023-04-28T01:58:18;99094.19;;;9.68;85.38
41202;BME280;26936;50.524;8.684;2023-04-28T02:00:43;99088.44;;;9.72;87.88
41202;BME280;26936;50.524;8.684;2023-04-28T02:03:08;99082.38;;;9.73;90.42
41202;BME280;26936;50.524;8.684;2023-04-28T02:05:34;99088.78;;;9.74;90.62
41202;BME280;26936;50.524;8.684;2023-04-28T02:07:59;99090.91;;;9.70;90.55
41202;BME280;26936;50.524;8.684;2023-04-28T02:10:24;99092.34;;;9.74;90.90
41202;BME280;26936;50.524;8.684;2023-04-28T02:12:49;99090.00;;;9.73;91.62
41202;BME280;26936;50.524;8.684;2023-04-28T02:15:15;99088.91;;;9.70;92.88
41202;BME280;26936;50.524;8.684;2023-04-28T02:17:41;99081.50;;;9.63;89.89
41202;BME280;26936;50.524;8.684;2023-04-28T02:20:06;99090.56;;;9.68;89.97
41202;BME280;26936;50.524;8.684;2023-04-28T02:22:32;99081.50;;;9.63;89.67
41202;BME280;26936;50.524;8.684;2023-04-28T02:24:57;99092.63;;;9.67;89.88
41202;BME280;26936;50.524;8.684;2023-04-28T02:27:22;99086.09;;;9.70;90.87
41202;BME280;26936;50.524;8.684;2023-04-28T02:29:48;99092.16;;;9.69;91.05
41202;BME280;26936;50.524;8.684;2023-04-28T02:32:13;99091.84;;;9.67;92.79
41202;BME280;26936;50.524;8.684;2023-04-28T02:34:38;99089.81;;;9.67;93.81
41202;BME280;26936;50.524;8.684;2023-04-28T02:37:04;99078.09;;;9.69;95.08
41202;BME280;26936;50.524;8.684;2023-04-28T02:39:29;99079.91;;;9.62;96.18
41202;BME280;26936;50.524;8.684;2023-04-28T02:41:55;99073.97;;;9.60;96.86
41202;BME280;26936;50.524;8.684;2023-04-28T02:44:20;99070.47;;;9.56;98.45
41202;BME280;26936;50.524;8.684;2023-04-28T02:46:46;99077.81;;;9.54;98.36
41202;BME280;26936;50.524;8.684;2023-04-28T02:49:11;99060.06;;;9.44;97.12
41202;BME280;26936;50.524;8.684;2023-04-28T02:51:37;99064.44;;;9.45;98.88
41202;BME280;26936;50.524;8.684;2023-04-28T02:54:02;99067.81;;;9.40;97.19
41202;BME280;26936;50.524;8.684;2023-04-28T02:56:27;99059.50;;;9.37;98.77
41202;BME280;26936;50.524;8.684;2023-04-28T02:58:54;99054.75;;;9.46;98.20
41202;BME280;26936;50.524;8.684;2023-04-28T03:01:19;99047.94;;;9.35;100.00
41202;BME280;26936;50.524;8.684;2023-04-28T03:03:44;99045.91;;;9.35;100.00
41202;BME280;26936;50.524;8.684;2023-04-28T03:06:10;99047.16;;;9.34;100.00
41202;BME280;26936;50.524;8.684;2023-04-28T03:08:35;99046.13;;;9.28;100.00
41202;BME280;26936;50.524;8.684;2023-04-28T03:11:00;99036.59;;;9.26;100.00
41202;BME280;26936;50.524;8.684;2023-04-28T03:13:26;99034.91;;;9.28;100.00
41202;BME280;26936;50.524;8.684;2023-04-28T03:15:51;99042.09;;;9.29;100.00
41202;BME280;26936;50.524;8.684;2023-04-28T03:18:16;99037.97;;;9.21;100.00
41202;BME280;26936;50.524;8.684;2023-04-28T03:20:42;99040.44;;;9.19;100.00
41202;BME280;26936;50.524;8.684;2023-04-28T03:23:07;99045.94;;;9.23;100.00
41202;BME280;26936;50.524;8.684;2023-04-28T03:25:33;99040.97;;;9.27;100.00
41202;BME280;26936;50.524;8.684;2023-04-28T03:27:58;99032.53;;;9.27;100.00
41202;BME280;26936;50.524;8.684;2023-04-28T03:30:23;99022.22;;;9.24;100.00
41202;BME280;26936;50.524;8.684;2023-04-28T03:32:48;99028.28;;;9.22;100.00
41202;BME280;26936;50.524;8.684;2023-04-28T03:35:14;99032.66;;;9.23;100.00
41202;BME280;26936;50.524;8.684;2023-04-28T03:37:39;99039.88;;;9.24;100.00
41202;BME280;26936;50.524;8.684;2023-04-28T03:40:05;99047.38;;;9.27;100.00
41202;BME280;26936;50.524;8.684;2023-04-28T03:42:30;99046.47;;;9.30;100.00
41202;BME280;26936;50.524;8.684;2023-04-28T03:44:55;99049.28;;;9.30;100.00
41202;BME280;26936;50.524;8.684;2023-04-28T03:47:21;99056.16;;;9.29;100.00
41202;BME280;26936;50.524;8.684;2023-04-28T03:49:46;99057.25;;;9.32;100.00
41202;BME280;26936;50.524;8.684;2023-04-28T03:52:11;99052.56;;;9.29;100.00
41202;BME280;26936;50.524;8.684;2023-04-28T03:54:36;99051.00;;;9.28;100.00
41202;BME280;26936;50.524;8.684;2023-04-28T03:57:02;99048.50;;;9.30;100.00
41202;BME280;26936;50.524;8.684;2023-04-28T03:59:28;99039.94;;;9.33;100.00
41202;BME280;26936;50.524;8.684;2023-04-28T04:01:53;99040.06;;;9.30;100.00
41202;BME280;26936;50.524;8.684;2023-04-28T04:04:19;99038.63;;;9.25;100.00
41202;BME280;26936;50.524;8.684;2023-04-28T04:06:44;99034.25;;;9.24;100.00
41202;BME280;26936;50.524;8.684;2023-04-28T04:09:10;99040.53;;;9.28;100.00
41202;BME280;26936;50.524;8.684;2023-04-28T04:11:35;99047.28;;;9.31;100.00
41202;BME280;26936;50.524;8.684;2023-04-28T04:14:00;99033.69;;;9.29;100.00
41202;BME280;26936;50.524;8.684;2023-04-28T04:16:25;99028.97;;;9.26;100.00
41202;BME280;26936;50.524;8.684;2023-04-28T04:18:51;99028.44;;;9.06;100.00
41202;BME280;26936;50.524;8.684;2023-04-28T04:21:16;99024.28;;;8.98;100.00
41202;BME280;26936;50.524;8.684;2023-04-28T04:23:41;99025.63;;;9.06;100.00
41202;BME280;26936;50.524;8.684;2023-04-28T04:26:07;99018.88;;;8.91;100.00
41202;BME280;26936;50.524;8.684;2023-04-28T04:28:32;99020.47;;;8.92;100.00
41202;BME280;26936;50.524;8.684;2023-04-28T04:30:57;99014.63;;;8.87;100.00
41202;BME280;26936;50.524;8.684;2023-04-28T04:33:23;99017.88;;;8.85;100.00
41202;BME280;26936;50.524;8.684;2023-04-28T04:35:48;99016.53;;;8.90;100.00
41202;BME280;26936;50.524;8.684;2023-04-28T04:38:13;99013.38;;;8.88;100.00
41202;BME280;26936;50.524;8.684;2023-04-28T04:40:39;99009.13;;;8.83;100.00
41202;BME280;26936;50.524;8.684;2023-04-28T04:43:04;99010.25;;;8.86;100.00
41202;BME280;26936;50.524;8.684;2023-04-28T04:45:29;99012.94;;;8.89;100.00
41202;BME280;26936;50.524;8.684;2023-04-28T04:47:55;99010.91;;;8.90;100.00
41202;BME280;26936;50.524;8.684;2023-04-28T04:50:20;99011.25;;;8.92;100.00
41202;BME280;26936;50.524;8.684;2023-04-28T04:52:46;99013.16;;;8.95;100.00
41202;BME280;26936;50.524;8.684;2023-04-28T04:55:11;99000.09;;;9.01;100.00
41202;BME280;26936;50.524;8.684;2023-04-28T04:57:36;99006.53;;;9.01;100.00
41202;BME280;26936;50.524;8.684;2023-04-28T05:00:03;99001.34;;;9.00;100.00
41202;BME280;26936;50.524;8.684;2023-04-28T05:02:29;99016.97;;;9.01;100.00
41202;BME280;26936;50.524;8.684;2023-04-28T05:04:54;99004.72;;;8.95;100.00
41202;BME280;26936;50.524;8.684;2023-04-28T05:07:20;99001.47;;;8.96;100.00
41202;BME280;26936;50.524;8.684;2023-04-28T05:09:45;99007.31;;;9.02;100.00
41202;BME280;26936;50.524;8.684;2023-04-28T05:12:10;99006.41;;;9.05;100.00
41202;BME280;26936;50.524;8.684;2023-04-28T05:14:35;99000.34;;;9.06;100.00
41202;BME280;26936;50.524;8.684;2023-04-28T05:17:01;99003.38;;;9.12;100.00
41202;BME280;26936;50.524;8.684;2023-04-28T05:19:26;99007.63;;;9.16;100.00
41202;BME280;26936;50.524;8.684;2023-04-28T05:21:52;99015.16;;;9.19;100.00
41202;BME280;26936;50.524;8.684;2023-04-28T05:24:20;99018.19;;;9.25;100.00
41202;BME280;26936;50.524;8.684;2023-04-28T05:26:48;99010.06;;;9.27;100.00
41202;BME280;26936;50.524;8.684;2023-04-28T05:29:13;99009.94;;;9.30;100.00
41202;BME280;26936;50.524;8.684;2023-04-28T05:31:39;99008.28;;;9.33;100.00
41202;BME280;26936;50.524;8.684;2023-04-28T05:34:04;99006.56;;;9.35;100.00
41202;BME280;26936;50.524;8.684;2023-04-28T05:36:30;99012.28;;;9.44;100.00
41202;BME280;26936;50.524;8.684;2023-04-28T05:38:56;99009.91;;;9.43;100.00
41202;BME280;26936;50.524;8.684;2023-04-28T05:41:21;99013.06;;;9.45;100.00
41202;BME280;26936;50.524;8.684;2023-04-28T05:43:46;98996.88;;;9.49;100.00
41202;BME280;26936;50.524;8.684;2023-04-28T05:46:15;99003.13;;;9.53;100.00
41202;BME280;26936;50.524;8.684;2023-04-28T05:48:40;99006.16;;;9.58;100.00
41202;BME280;26936;50.524;8.684;2023-04-28T05:51:05;99005.25;;;9.61;100.00
41202;BME280;26936;50.524;8.684;2023-04-28T05:53:30;99008.41;;;9.63;100.00
41202;BME280;26936;50.524;8.684;2023-04-28T05:55:56;99013.09;;;9.67;100.00
41202;BME280;26936;50.524;8.684;2023-04-28T05:58:21;99015.47;;;9.68;100.00
41202;BME280;26936;50.524;8.684;2023-04-28T06:00:46;99014.19;;;9.69;100.00
41202;BME280;26936;50.524;8.684;2023-04-28T06:03:12;99012.63;;;9.68;100.00
41202;BME280;26936;50.524;8.684;2023-04-28T06:05:38;99015.78;;;9.70;100.00
41202;BME280;26936;50.524;8.684;2023-04-28T06:08:04;99022.22;;;9.71;100.00
41202;BME280;26936;50.524;8.684;2023-04-28T06:10:29;99025.78;;;9.71;100.00
41202;BME280;26936;50.524;8.684;2023-04-28T06:12:54;99016.44;;;9.74;100.00
41202;BME280;26936;50.524;8.684;2023-04-28T06:15:20;99012.53;;;9.72;100.00
41202;BME280;26936;50.524;8.684;2023-04-28T06:17:46;99013.97;;;9.76;100.00
41202;BME280;26936;50.524;8.684;2023-04-28T06:20:11;99017.09;;;9.78;100.00
41202;BME280;26936;50.524;8.684;2023-04-28T06:22:38;99016.78;;;9.76;100.00
41202;BME280;26936;50.524;8.684;2023-04-28T06:25:03;99008.00;;;9.74;100.00
41202;BME280;26936;50.524;8.684;2023-04-28T06:27:29;99011.94;;;9.77;100.00
41202;BME280;26936;50.524;8.684;2023-04-28T06:29:56;98999.91;;;9.76;100.00
41202;BME280;26936;50.524;8.684;2023-04-28T06:32:22;99005.97;;;9.75;100.00
41202;BME280;26936;50.524;8.684;2023-04-28T06:34:47;98990.03;;;9.72;100.00
41202;BME280;26936;50.524;8.684;2023-04-28T06:37:12;99001.84;;;9.67;100.00
41202;BME280;26936;50.524;8.684;2023-04-28T06:39:37;98998.91;;;9.70;100.00
41202;BME280;26936;50.524;8.684;2023-04-28T06:42:03;99004.66;;;9.67;100.00
41202;BME280;26936;50.524;8.684;2023-04-28T06:44:28;99008.91;;;9.71;100.00
41202;BME280;26936;50.524;8.684;2023-04-28T06:46:53;98999.09;;;9.76;100.00
41202;BME280;26936;50.524;8.684;2023-04-28T06:49:18;98986.69;;;9.64;100.00
41202;BME280;26936;50.524;8.684;2023-04-28T06:51:44;98980.28;;;9.63;100.00
41202;BME280;26936;50.524;8.684;2023-04-28T06:54:09;98992.03;;;9.71;100.00
41202;BME280;26936;50.524;8.684;2023-04-28T06:56:35;98998.97;;;9.79;100.00
41202;BME280;26936;50.524;8.684;2023-04-28T06:59:00;99007.28;;;9.83;100.00
41202;BME280;26936;50.524;8.684;2023-04-28T07:01:27;98999.19;;;9.85;100.00
41202;BME280;26936;50.524;8.684;2023-04-28T07:03:52;98990.75;;;9.85;100.00
41202;BME280;26936;50.524;8.684;2023-04-28T07:06:18;98997.69;;;9.93;100.00
41202;BME280;26936;50.524;8.684;2023-04-28T07:08:44;98992.84;;;9.93;100.00
41202;BME280;26936;50.524;8.684;2023-04-28T07:11:09;98993.50;;;9.97;100.00
41202;BME280;26936;50.524;8.684;2023-04-28T07:13:34;98986.91;;;9.91;100.00
41202;BME280;26936;50.524;8.684;2023-04-28T07:16:00;98987.22;;;9.93;100.00
41202;BME280;26936;50.524;8.684;2023-04-28T07:18:25;98980.72;;;10.05;100.00
41202;BME280;26936;50.524;8.684;2023-04-28T07:20:51;98950.84;;;10.20;100.00
41202;BME280;26936;50.524;8.684;2023-04-28T07:23:16;98924.72;;;10.20;100.00
41202;BME280;26936;50.524;8.684;2023-04-28T07:25:41;98927.50;;;10.11;100.00
41202;BME280;26936;50.524;8.684;2023-04-28T07:28:07;98919.63;;;10.06;100.00
41202;BME280;26936;50.524;8.684;2023-04-28T07:30:33;98933.81;;;10.24;100.00
41202;BME280;26936;50.524;8.684;2023-04-28T07:32:58;98945.41;;;10.26;100.00
41202;BME280;26936;50.524;8.684;2023-04-28T07:35:24;98955.53;;;10.23;100.00
41202;BME280;26936;50.524;8.684;2023-04-28T07:37:50;98962.31;;;10.26;100.00
41202;BME280;26936;50.524;8.684;2023-04-28T07:40:15;98959.56;;;10.13;100.00
41202;BME280;26936;50.524;8.684;2023-04-28T07:42:41;98966.63;;;10.18;100.00
41202;BME280;26936;50.524;8.684;2023-04-28T07:45:07;98960.34;;;10.14;100.00
41202;BME280;26936;50.524;8.684;2023-04-28T07:47:32;98959.81;;;10.06;100.00
41202;BME280;26936;50.524;8.684;2023-04-28T07:49:58;98964.31;;;10.04;100.00
41202;BME280;26936;50.524;8.684;2023-04-28T07:52:25;98976.50;;;10.01;100.00
41202;BME280;26936;50.524;8.684;2023-04-28T07:54:50;98972.75;;;10.04;100.00
41202;BME280;26936;50.524;8.684;2023-04-28T07:57:15;98970.63;;;10.08;100.00
41202;BME280;26936;50.524;8.684;2023-04-28T07:59:40;98968.78;;;10.14;100.00
41202;BME280;26936;50.524;8.684;2023-04-28T08:02:06;98967.94;;;10.26;100.00
41202;BME280;26936;50.524;8.684;2023-04-28T08:04:31;98970.34;;;10.15;100.00
41202;BME280;26936;50.524;8.684;2023-04-28T08:06:58;98968.53;;;10.21;100.00
41202;BME280;26936;50.524;8.684;2023-04-28T08:09:24;98975.31;;;10.32;100.00
41202;BME280;26936;50.524;8.684;2023-04-28T08:11:49;98973.19;;;10.45;100.00
41202;BME280;26936;50.524;8.684;2023-04-28T08:14:15;98970.19;;;10.40;100.00
41202;BME280;26936;50.524;8.684;2023-04-28T08:16:40;98968.66;;;10.48;100.00
41202;BME280;26936;50.524;8.684;2023-04-28T08:19:06;98968.53;;;10.51;100.00
41202;BME280;26936;50.524;8.684;2023-04-28T08:21:31;98968.84;;;10.53;100.00
41202;BME280;26936;50.524;8.684;2023-04-28T08:23:56;98970.28;;;10.58;100.00
41202;BME280;26936;50.524;8.684;2023-04-28T08:26:22;98966.25;;;10.68;100.00
41202;BME280;26936;50.524;8.684;2023-04-28T08:28:48;98979.06;;;10.69;100.00
41202;BME280;26936;50.524;8.684;2023-04-28T08:31:15;98985.22;;;10.76;100.00
41202;BME280;26936;50.524;8.684;2023-04-28T08:33:40;98972.38;;;10.75;100.00
41202;BME280;26936;50.524;8.684;2023-04-28T08:36:08;98964.59;;;10.88;100.00
41202;BME280;26936;50.524;8.684;2023-04-28T08:38:36;98973.03;;;10.88;100.00
41202;BME280;26936;50.524;8.684;2023-04-28T08:41:03;98965.03;;;10.78;100.00
41202;BME280;26936;50.524;8.684;2023-04-28T08:43:28;98965.25;;;10.92;100.00
41202;BME280;26936;50.524;8.684;2023-04-28T08:45:54;98959.75;;;10.98;100.00
41202;BME280;26936;50.524;8.684;2023-04-28T08:48:21;98968.25;;;11.07;100.00
41202;BME280;26936;50.524;8.684;2023-04-28T08:50:53;98969.53;;;11.24;100.00
41202;BME280;26936;50.524;8.684;2023-04-28T08:53:25;98971.09;;;11.25;100.00
41202;BME280;26936;50.524;8.684;2023-04-28T08:55:55;98971.75;;;11.38;100.00
41202;BME280;26936;50.524;8.684;2023-04-28T08:58:22;98976.91;;;11.40;100.00
41202;BME280;26936;50.524;8.684;2023-04-28T09:00:48;98973.31;;;11.30;100.00
41202;BME280;26936;50.524;8.684;2023-04-28T09:03:13;98971.91;;;11.35;100.00
41202;BME280;26936;50.524;8.684;2023-04-28T09:05:39;98973.63;;;11.41;100.00
41202;BME280;26936;50.524;8.684;2023-04-28T09:08:04;98984.16;;;11.50;100.00
41202;BME280;26936;50.524;8.684;2023-04-28T09:10:29;98976.63;;;11.47;100.00
41202;BME280;26936;50.524;8.684;2023-04-28T09:12:55;98973.47;;;11.54;100.00
41202;BME280;26936;50.524;8.684;2023-04-28T09:15:32;98978.81;;;11.61;100.00
41202;BME280;26936;50.524;8.684;2023-04-28T09:17:58;98976.81;;;11.70;100.00
41202;BME280;26936;50.524;8.684;2023-04-28T09:20:29;98980.09;;;11.69;100.00
41202;BME280;26936;50.524;8.684;2023-04-28T09:22:56;98975.25;;;11.78;100.00
41202;BME280;26936;50.524;8.684;2023-04-28T09:25:36;98970.69;;;11.63;100.00
41202;BME280;26936;50.524;8.684;2023-04-28T09:28:18;98974.59;;;11.65;100.00
41202;BME280;26936;50.524;8.684;2023-04-28T09:30:44;98971.97;;;11.71;100.00
41202;BME280;26936;50.524;8.684;2023-04-28T09:33:09;98976.63;;;11.56;100.00
41202;BME280;26936;50.524;8.684;2023-04-28T09:35:38;98981.03;;;11.66;100.00
41202;BME280;26936;50.524;8.684;2023-04-28T09:38:04;98988.25;;;11.67;100.00
41202;BME280;26936;50.524;8.684;2023-04-28T09:40:30;98980.84;;;11.51;100.00
41202;BME280;26936;50.524;8.684;2023-04-28T09:42:55;98980.53;;;11.49;100.00
41202;BME280;26936;50.524;8.684;2023-04-28T09:45:21;98978.66;;;11.55;100.00
41202;BME280;26936;50.524;8.684;2023-04-28T09:47:46;98981.94;;;11.45;100.00
41202;BME280;26936;50.524;8.684;2023-04-28T09:50:14;98977.53;;;11.35;100.00
41202;BME280;26936;50.524;8.684;2023-04-28T09:52:41;98986.31;;;11.46;100.00
41202;BME280;26936;50.524;8.684;2023-04-28T09:55:10;98983.03;;;11.38;100.00
41202;BME280;26936;50.524;8.684;2023-04-28T09:57:37;98978.81;;;11.52;100.00
41202;BME280;26936;50.524;8.684;2023-04-28T10:00:04;98977.25;;;11.51;100.00
41202;BME280;26936;50.524;8.684;2023-04-28T10:02:30;98975.34;;;11.57;100.00
41202;BME280;26936;50.524;8.684;2023-04-28T10:04:56;98977.72;;;11.58;100.00
41202;BME280;26936;50.524;8.684;2023-04-28T10:07:22;98967.88;;;11.72;100.00
41202;BME280;26936;50.524;8.684;2023-04-28T10:09:48;98971.63;;;11.87;100.00
41202;BME280;26936;50.524;8.684;2023-04-28T10:12:19;98974.16;;;11.94;100.00
41202;BME280;26936;50.524;8.684;2023-04-28T10:14:45;98969.88;;;11.89;100.00
41202;BME280;26936;50.524;8.684;2023-04-28T10:17:14;98982.88;;;12.14;100.00
41202;BME280;26936;50.524;8.684;2023-04-28T10:19:40;98970.66;;;12.17;100.00
41202;BME280;26936;50.524;8.684;2023-04-28T10:27:45;98968.13;;;12.28;100.00
41202;BME280;26936;50.524;8.684;2023-04-28T10:30:16;98963.13;;;12.65;100.00
41202;BME280;26936;50.524;8.684;2023-04-28T10:32:42;98950.03;;;12.85;100.00
41202;BME280;26936;50.524;8.684;2023-04-28T10:40:45;98933.66;;;12.89;100.00
41202;BME280;26936;50.524;8.684;2023-04-28T10:43:32;98940.03;;;13.08;100.00
41202;BME280;26936;50.524;8.684;2023-04-28T10:56:07;98941.38;;;13.98;100.00
41202;BME280;26936;50.524;8.684;2023-04-28T10:58:33;98931.84;;;13.72;100.00
41202;BME280;26936;50.524;8.684;2023-04-28T11:06:23;98919.72;;;13.56;100.00
41202;BME280;26936;50.524;8.684;2023-04-28T11:08:59;98926.88;;;13.81;100.00
41202;BME280;26936;50.524;8.684;2023-04-28T11:11:29;98915.09;;;13.83;100.00
41202;BME280;26936;50.524;8.684;2023-04-28T11:16:59;98919.78;;;14.15;100.00
41202;BME280;26936;50.524;8.684;2023-04-28T11:19:31;98921.56;;;14.12;100.00
41202;BME280;26936;50.524;8.684;2023-04-28T11:21:59;98923.19;;;13.90;100.00
41202;BME280;26936;50.524;8.684;2023-04-28T11:24:26;98921.94;;;14.05;100.00
41202;BME280;26936;50.524;8.684;2023-04-28T11:26:53;98912.66;;;14.05;100.00
41202;BME280;26936;50.524;8.684;2023-04-28T11:29:32;98907.69;;;14.00;100.00
41202;BME280;26936;50.524;8.684;2023-04-28T11:31:59;98908.38;;;14.24;100.00
41202;BME280;26936;50.524;8.684;2023-04-28T11:34:24;98900.38;;;14.22;100.00
41202;BME280;26936;50.524;8.684;2023-04-28T11:36:50;98892.38;;;14.70;100.00
41202;BME280;26936;50.524;8.684;2023-04-28T11:39:15;98896.56;;;14.89;100.00
41202;BME280;26936;50.524;8.684;2023-04-28T11:41:43;98897.22;;;15.59;100.00
41202;BME280;26936;50.524;8.684;2023-04-28T11:46:35;98904.41;;;16.00;99.38
41202;BME280;26936;50.524;8.684;2023-04-28T11:49:04;98906.53;;;16.05;98.34
41202;BME280;26936;50.524;8.684;2023-04-28T11:51:35;98901.38;;;16.09;97.77
41202;BME280;26936;50.524;8.684;2023-04-28T11:54:05;98905.72;;;16.30;97.19
41202;BME280;26936;50.524;8.684;2023-04-28T11:56:42;98911.34;;;16.50;92.93
41202;BME280;26936;50.524;8.684;2023-04-28T11:59:10;98882.44;;;16.26;94.41
41202;BME280;26936;50.524;8.684;2023-04-28T12:01:50;98890.53;;;16.39;96.78
41202;BME280;26936;50.524;8.684;2023-04-28T12:04:32;98881.63;;;16.20;97.45
41202;BME280;26936;50.524;8.684;2023-04-28T12:09:29;98891.75;;;16.01;98.42
41202;BME280;26936;50.524;8.684;2023-04-28T12:11:56;98893.31;;;16.02;96.93
41202;BME280;26936;50.524;8.684;2023-04-28T12:14:23;98891.94;;;15.46;100.00
41202;BME280;26936;50.524;8.684;2023-04-28T12:16:49;98889.19;;;15.37;100.00
41202;BME280;26936;50.524;8.684;2023-04-28T12:19:15;98886.19;;;15.41;100.00
41202;BME280;26936;50.524;8.684;2023-04-28T12:21:41;98888.88;;;15.50;99.10
41202;BME280;26936;50.524;8.684;2023-04-28T12:24:19;98890.66;;;15.47;100.00
41202;BME280;26936;50.524;8.684;2023-04-28T12:26:46;98894.72;;;15.66;99.66
41202;BME280;26936;50.524;8.684;2023-04-28T12:29:37;98893.84;;;15.55;100.00
41202;BME280;26936;50.524;8.684;2023-04-28T12:32:07;98886.34;;;15.37;100.00
41202;BME280;26936;50.524;8.684;2023-04-28T12:34:33;98884.22;;;15.32;100.00
41202;BME280;26936;50.524;8.684;2023-04-28T12:37:00;98887.75;;;15.42;100.00
41202;BME280;26936;50.524;8.684;2023-04-28T12:39:26;98901.97;;;15.67;100.00
41202;BME280;26936;50.524;8.684;2023-04-28T12:41:52;98896.31;;;15.67;100.00
41202;BME280;26936;50.524;8.684;2023-04-28T12:44:19;98890.53;;;15.82;100.00
41202;BME280;26936;50.524;8.684;2023-04-28T12:46:45;98885.38;;;15.86;100.00
41202;BME280;26936;50.524;8.684;2023-04-28T12:49:10;98882.84;;;16.13;100.00
41202;BME280;26936;50.524;8.684;2023-04-28T12:51:35;98876.53;;;16.04;100.00
41202;BME280;26936;50.524;8.684;2023-04-28T12:54:01;98877.53;;;16.26;100.00
41202;BME280;26936;50.524;8.684;2023-04-28T12:56:26;98875.00;;;16.34;100.00
41202;BME280;26936;50.524;8.684;2023-04-28T12:58:56;98879.22;;;16.44;99.71
41202;BME280;26936;50.524;8.684;2023-04-28T13:01:22;98877.75;;;16.23;100.00
41202;BME280;26936;50.524;8.684;2023-04-28T13:03:47;98888.97;;;16.06;100.00
41202;BME280;26936;50.524;8.684;2023-04-28T13:06:17;98874.66;;;16.21;100.00
41202;BME280;26936;50.524;8.684;2023-04-28T13:08:43;98885.31;;;16.31;100.00
41202;BME280;26936;50.524;8.684;2023-04-28T13:11:11;98880.16;;;16.61;100.00
41202;BME280;26936;50.524;8.684;2023-04-28T13:13:37;98875.31;;;16.73;100.00
41202;BME280;26936;50.524;8.684;2023-04-28T13:16:03;98881.50;;;17.08;97.57
41202;BME280;26936;50.524;8.684;2023-04-28T13:18:29;98876.53;;;16.97;95.94
41202;BME280;26936;50.524;8.684;2023-04-28T13:20:55;98881.78;;;17.15;96.76
41202;BME280;26936;50.524;8.684;2023-04-28T13:23:21;98872.97;;;17.08;97.04
41202;BME280;26936;50.524;8.684;2023-04-28T13:25:46;98868.09;;;16.77;98.98
41202;BME280;26936;50.524;8.684;2023-04-28T13:28:12;98880.63;;;16.28;100.00